createdAt,value
2019-04-04T00:01:36.271Z,8.13
2019-04-04T00:06:42.242Z,7.98
2019-04-04T00:11:46.990Z,7.81
2019-04-04T00:16:51.619Z,7.94
2019-04-04T00:21:56.367Z,7.64
2019-04-04T00:27:01.115Z,8.02
2019-04-04T00:32:05.739Z,7.81
2019-04-04T00:37:10.495Z,7.67
2019-04-04T00:42:16.986Z,7.85
2019-04-04T00:47:21.618Z,7.60
2019-04-04T00:52:26.357Z,7.97
2019-04-04T00:57:30.989Z,7.68
2019-04-04T01:02:36.559Z,7.68
2019-04-04T01:07:41.200Z,8.03
2019-04-04T01:12:45.944Z,7.74
2019-04-04T01:17:50.577Z,7.09
2019-04-04T01:22:56.150Z,7.07
2019-04-04T01:28:01.401Z,7.65
2019-04-04T01:33:06.145Z,7.75
2019-04-04T01:38:10.786Z,7.79
2019-04-04T01:43:15.339Z,7.87
2019-04-04T01:48:19.943Z,7.89
2019-04-04T01:53:24.606Z,8.19
2019-04-04T01:58:29.245Z,8.14
2019-04-04T02:03:33.989Z,8.51
2019-04-04T02:08:38.517Z,8.50
2019-04-04T02:13:43.265Z,8.65
2019-04-04T02:18:47.919Z,8.60
2019-04-04T02:23:52.538Z,8.75
2019-04-04T02:28:57.190Z,8.28
2019-04-04T02:34:05.399Z,8.43
2019-04-04T02:39:15.485Z,8.06
2019-04-04T02:44:20.039Z,7.46
2019-04-04T02:49:27.933Z,7.72
2019-04-04T02:54:31.239Z,7.93
2019-04-04T02:59:36.094Z,7.49
2019-04-04T03:04:40.832Z,7.62
2019-04-04T03:09:45.577Z,7.26
2019-04-04T03:14:50.716Z,7.10
2019-04-04T03:19:55.780Z,7.58
2019-04-04T03:25:00.345Z,8.17
2019-04-04T03:30:13.675Z,8.12
2019-04-04T03:35:13.278Z,8.34
2019-04-04T03:40:18.038Z,8.36
2019-04-04T03:45:26.011Z,8.09
2019-04-04T03:50:30.137Z,8.24
2019-04-04T03:55:35.229Z,8.42
2019-04-04T04:00:40.681Z,8.59
2019-04-04T04:05:45.412Z,8.56
2019-04-04T04:10:50.072Z,8.32
2019-04-04T04:15:54.674Z,8.28
2019-04-04T04:20:59.465Z,8.31
2019-04-04T04:26:08.053Z,8.18
2019-04-04T04:31:13.990Z,8.36
2019-04-04T04:36:16.859Z,8.60
2019-04-04T04:41:21.592Z,8.47
2019-04-04T04:46:26.233Z,8.62
2019-04-04T04:51:30.981Z,9.13
2019-04-04T04:56:35.768Z,8.98
2019-04-04T05:01:41.511Z,9.47
2019-04-04T05:06:46.135Z,9.52
2019-04-04T05:11:51.004Z,9.50
2019-04-04T05:16:55.642Z,10.00
2019-04-04T05:22:00.370Z,10.42
2019-04-04T05:27:06.667Z,10.59
2019-04-04T05:32:11.502Z,10.30
2019-04-04T05:37:16.444Z,10.85
2019-04-04T05:42:21.273Z,11.50
2019-04-04T05:47:26.026Z,11.24
2019-04-04T05:52:32.676Z,11.36
2019-04-04T05:57:38.182Z,12.11
2019-04-04T06:02:45.889Z,11.63
2019-04-04T06:07:51.383Z,11.97
2019-04-04T06:12:57.876Z,12.43
2019-04-04T06:18:03.683Z,12.28
2019-04-04T06:23:08.440Z,12.27
2019-04-04T06:28:13.185Z,12.16
2019-04-04T06:33:17.972Z,12.40
2019-04-04T06:38:23.489Z,13.86
2019-04-04T06:43:29.164Z,13.31
2019-04-04T06:48:34.013Z,14.53
2019-04-04T06:53:38.848Z,14.30
2019-04-04T06:58:45.535Z,15.28
2019-04-04T07:03:52.687Z,14.95
2019-04-04T07:08:58.604Z,15.00
2019-04-04T07:14:03.349Z,14.98
2019-04-04T07:19:08.357Z,15.10
2019-04-04T07:24:13.139Z,15.04
2019-04-04T07:29:17.994Z,14.38
2019-04-04T07:34:22.830Z,15.60
2019-04-04T07:39:27.584Z,16.17
2019-04-04T07:44:32.214Z,15.99
2019-04-04T07:49:40.097Z,15.54
2019-04-04T07:54:43.649Z,15.87
2019-04-04T07:59:48.496Z,15.24
2019-04-04T08:04:53.241Z,15.39
2019-04-04T08:09:59.814Z,16.05
2019-04-04T08:15:08.154Z,16.20
2019-04-04T08:20:14.666Z,15.84
2019-04-04T08:25:19.379Z,15.89
2019-04-04T08:30:24.039Z,16.24
2019-04-04T08:35:29.210Z,16.54
2019-04-04T08:40:33.915Z,16.28
2019-04-04T08:45:38.670Z,16.57
2019-04-04T08:50:43.523Z,17.24
2019-04-04T08:55:48.357Z,17.26
2019-04-04T09:00:53.197Z,17.27
2019-04-04T09:05:58.154Z,17.49
2019-04-04T09:11:03.899Z,17.28
2019-04-04T09:16:09.724Z,18.05
2019-04-04T09:21:14.630Z,18.47
2019-04-04T09:26:19.473Z,17.82
2019-04-04T09:31:24.212Z,18.72
2019-04-04T09:36:28.765Z,19.36
2019-04-04T09:41:35.141Z,19.39
2019-04-04T09:46:39.900Z,19.78
2019-04-04T09:51:44.935Z,20.35
2019-04-04T09:56:49.785Z,20.35
2019-04-04T10:01:54.523Z,20.63
2019-04-04T10:06:59.378Z,19.63
2019-04-04T10:12:04.227Z,19.99
2019-04-04T10:17:08.835Z,19.75
2019-04-04T10:22:13.603Z,19.61
2019-04-04T10:27:18.346Z,19.72
2019-04-04T10:32:23.215Z,19.94
2019-04-04T10:37:27.936Z,20.03
2019-04-04T10:42:32.782Z,20.01
2019-04-04T10:47:37.526Z,20.47
2019-04-04T10:52:43.397Z,20.28
2019-04-04T10:57:48.137Z,20.84
2019-04-04T11:02:52.880Z,19.89
2019-04-04T11:07:57.627Z,20.18
2019-04-04T11:13:02.992Z,20.28
2019-04-04T11:18:07.838Z,19.96
2019-04-04T11:23:12.579Z,20.59
2019-04-04T11:28:17.221Z,21.01
2019-04-04T11:33:21.960Z,21.41
2019-04-04T11:38:26.601Z,21.15
2019-04-04T11:43:31.344Z,21.90
2019-04-04T11:48:36.613Z,21.99
2019-04-04T11:53:41.448Z,21.87
2019-04-04T11:58:46.182Z,21.25
2019-04-04T12:03:51.307Z,21.79
2019-04-04T12:08:55.983Z,21.67
2019-04-04T12:14:00.624Z,21.75
2019-04-04T12:19:05.371Z,21.77
2019-04-04T12:24:10.123Z,21.84
2019-04-04T12:29:14.761Z,21.26
2019-04-04T12:34:20.630Z,20.97
2019-04-04T12:39:25.382Z,21.01
2019-04-04T12:44:30.295Z,21.37
2019-04-04T12:49:35.066Z,21.65
2019-04-04T12:54:40.729Z,21.09
2019-04-04T12:59:45.366Z,21.01
2019-04-04T13:04:50.109Z,21.48
2019-04-04T13:09:54.858Z,20.42
2019-04-04T13:14:59.612Z,20.83
2019-04-04T13:20:08.336Z,21.43
2019-04-04T13:25:13.099Z,22.09
2019-04-04T13:30:17.948Z,20.34
2019-04-04T13:35:23.284Z,21.28
2019-04-04T13:40:28.133Z,20.93
2019-04-04T13:45:33.785Z,21.20
2019-04-04T13:50:39.564Z,20.75
2019-04-04T13:55:44.307Z,20.70
2019-04-04T14:00:48.957Z,20.67
2019-04-04T14:05:53.692Z,20.66
2019-04-04T14:10:58.689Z,20.28
2019-04-04T14:16:03.590Z,19.75
2019-04-04T14:21:08.336Z,19.59
2019-04-04T14:26:13.074Z,20.16
2019-04-04T14:31:17.826Z,20.31
2019-04-04T14:36:22.564Z,20.53
2019-04-04T14:41:27.310Z,20.26
2019-04-04T14:46:32.051Z,19.91
2019-04-04T14:51:36.801Z,20.21
2019-04-04T14:56:41.437Z,19.97
2019-04-04T15:01:46.283Z,19.59
2019-04-04T15:06:51.567Z,20.10
2019-04-04T15:11:57.011Z,20.20
2019-04-04T15:17:01.750Z,20.30
2019-04-04T15:22:08.014Z,20.48
2019-04-04T15:27:13.796Z,20.38
2019-04-04T15:32:18.433Z,20.04
2019-04-04T15:37:23.179Z,20.40
2019-04-04T15:42:28.862Z,20.08
2019-04-04T15:47:33.576Z,20.38
2019-04-04T15:52:38.845Z,19.59
2019-04-04T15:57:44.839Z,20.03
2019-04-04T16:02:49.764Z,20.09
2019-04-04T16:07:54.403Z,20.28
2019-04-04T16:12:59.361Z,20.61
2019-04-04T16:18:04.506Z,20.14
2019-04-04T16:23:12.739Z,20.16
2019-04-04T16:28:17.577Z,20.11
2019-04-04T16:33:22.977Z,19.59
2019-04-04T16:38:27.825Z,18.79
2019-04-04T16:43:32.634Z,18.86
2019-04-04T16:48:37.370Z,19.18
2019-04-04T17:22:32.136Z,18.21
2019-04-04T17:27:37.744Z,17.75
2019-04-04T17:32:43.367Z,17.02
2019-04-04T17:37:49.047Z,16.42
2019-04-04T17:42:56.829Z,16.86
2019-04-04T17:48:03.071Z,17.11
2019-04-04T17:53:08.876Z,17.04
2019-04-04T17:58:14.712Z,16.88
2019-04-04T18:03:20.313Z,16.44
2019-04-04T18:08:26.318Z,16.60
2019-04-04T18:13:32.874Z,16.66
2019-04-04T18:18:39.866Z,16.55
2019-04-04T18:23:44.625Z,16.41
2019-04-04T18:28:50.993Z,16.40
2019-04-04T18:33:56.345Z,15.87
2019-04-04T18:39:01.017Z,15.93
2019-04-04T18:44:07.800Z,15.88
2019-04-04T18:49:12.561Z,15.75
2019-04-04T18:54:17.476Z,15.54
2019-04-04T18:59:23.070Z,15.59
2019-04-04T19:04:28.043Z,15.26
2019-04-04T19:09:33.335Z,15.17
2019-04-04T19:14:38.208Z,15.21
2019-04-04T19:19:43.893Z,14.78
2019-04-04T19:24:48.835Z,14.99
2019-04-04T19:29:55.909Z,14.63
2019-04-04T19:35:00.971Z,14.52
2019-04-04T19:40:10.718Z,14.46
2019-04-04T19:45:15.562Z,13.70
2019-04-04T19:50:20.291Z,13.65
2019-04-04T19:55:25.336Z,13.69
2019-04-04T20:00:33.126Z,13.67
2019-04-04T20:05:38.359Z,12.42
2019-04-04T20:10:43.174Z,12.55
2019-04-04T20:15:47.916Z,12.56
2019-04-04T20:20:52.757Z,11.98
2019-04-04T20:25:57.501Z,12.09
2019-04-04T20:31:02.245Z,11.45
2019-04-04T20:36:07.288Z,11.71
2019-04-04T20:41:12.861Z,11.97
2019-04-04T20:46:18.177Z,11.98
2019-04-04T20:51:24.505Z,12.16
2019-04-04T20:56:29.237Z,11.42
2019-04-04T21:01:33.978Z,11.68
2019-04-04T21:06:40.082Z,12.28
2019-04-04T21:11:45.104Z,12.31
2019-04-04T21:16:50.060Z,12.43
2019-04-04T21:21:54.927Z,12.09
2019-04-04T21:26:59.568Z,11.06
2019-04-04T21:32:04.232Z,11.87
2019-04-04T21:37:09.126Z,11.70
2019-04-04T21:42:14.136Z,11.71
2019-04-04T21:47:18.916Z,10.75
2019-04-04T21:52:23.664Z,10.89
2019-04-04T21:57:28.508Z,10.57
2019-04-04T22:02:33.562Z,10.67
2019-04-04T22:07:38.827Z,10.99
2019-04-04T22:12:43.851Z,11.54
2019-04-04T22:17:48.603Z,10.89
2019-04-04T22:22:55.327Z,10.85
2019-04-04T22:28:02.153Z,11.03
2019-04-04T22:33:06.928Z,10.86
2019-04-04T22:38:11.744Z,10.50
2019-04-04T22:43:16.521Z,10.24
2019-04-04T22:48:21.301Z,10.03
2019-04-04T22:53:26.115Z,10.07
2019-04-04T22:58:30.751Z,10.14
2019-04-04T23:03:35.495Z,9.64
2019-04-04T23:08:40.652Z,9.60
2019-04-04T23:13:45.604Z,9.58
2019-04-04T23:18:50.758Z,9.52
2019-04-04T23:23:57.368Z,8.97
2019-04-04T23:29:02.393Z,9.23
2019-04-04T23:34:07.753Z,9.16
2019-04-04T23:39:13.401Z,8.50
2019-04-04T23:44:18.247Z,9.29
2019-04-04T23:49:23.206Z,9.32
2019-04-04T23:54:28.118Z,9.43
2019-04-04T23:59:32.942Z,8.36
